Aeroporto :
LOGIN :

Iscrizione | Disclaimer

   EN    FR    IT 

 










Sommario :    VFR   VFR Marginale   IFR   IFR Intensivo   IFR Molto Intensivo
Visibilità : 
Base nubi : 
>= 8 km
>= 3000ft
5 / 8 km
1000 / 3000 ft
1500m / 5 km
500 / 1000 ft
800 / 1500m
200 / 500 ft
< 800m
< 200 ft
Simboli :   Temporali  Nebbia  Neve Forte  Precipitazioni Forti  Vento > 20 kt
SIGMETs :   Varie  Temporali  Ghiacco  Turbolenza  Onda orograficha  Ceneri Vulcaniche






- Altitudine del aeroporto : 75 ft
- Codice IATA : YEO


EGDY - RNAS Yeovilton

ULTIMO METAR :
  • 230920Z 30011KT 9999 FEW022 BKN024 13/09 Q1015 BECMG BKN024 RMK WHT BECMG BLU

METARs OBSOLETI :
  • 230850Z 29013KT 9999 FEW020 BKN024 13/08 Q1015 BECMG BKN024 RMK WHT BECMG WHT
  • 230820Z 29012KT 9999 FEW020 BKN024 13/08 Q1015 BECMG BKN024 RMK WHT BECMG WHT
  • 230750Z 28012KT 9999 FEW020 BKN024 13/09 Q1014 BECMG BKN024 RMK WHT BECMG WHT
  • 230650Z 30009KT 9999 FEW020 BKN024 13/09 Q1014 NOSIG RMK WHT WHT
  • 230620Z AUTO 30010KT 9999 OVC018/// 12/09 Q1014
  • 230550Z 28008KT 9999 FEW023 BKN024 12/10 Q1014 RMK WHT
  • 230520Z AUTO 29008KT 9999 BKN024/// 12/09 Q1013
  • 230450Z 28009KT 9999 FEW024 SCT025 11/09 Q1013 RMK BLU

TAF TAF EGDY
Valido dal 23 a 09 ore il 23 a 18 ore UTC


230735Z 2309/2318 30010G20KT 9999 FEW010 BKN024
BECMG 2309/2311 SCT025



MetMap, La meteo Aeronautica in un colpo d'occhio ! - Copyright ORBIFLY Dicembre 2007 - Disclaimer

ORBIFLY MET'MAP TEAM :

Programmazione e sviluppo : Alexandra Zaïnal
Concezione : Baudouin d'Aumeries
Supporto tecnico e logistico : Manuel Goepfert
Aiuto : Marc-Olivier Méhu
Aiuto per la traduzione : Arnaldo La Scala




FONTI E CREDITI :

   NOAA